createdAt,value
2023-08-23T00:02:21.890Z,101340.22
2023-08-23T00:04:50.572Z,101339.88
2023-08-23T00:07:17.464Z,101335.66
2023-08-23T00:09:44.160Z,101342.34
2023-08-23T00:12:10.711Z,101339.81
2023-08-23T00:14:37.237Z,101342.25
2023-08-23T00:17:03.960Z,101340.84
2023-08-23T00:19:30.605Z,101344.13
2023-08-23T00:21:57.073Z,101340.75
2023-08-23T00:24:23.626Z,101342.97
2023-08-23T00:26:50.189Z,101339.00
2023-08-23T00:29:16.787Z,101344.81
2023-08-23T00:31:43.325Z,101342.28
2023-08-23T00:34:09.848Z,101348.13
2023-08-23T00:36:37.033Z,101344.13
2023-08-23T00:39:03.564Z,101346.31
2023-08-23T00:41:30.049Z,101348.75
2023-08-23T00:43:56.686Z,101342.03
2023-08-23T00:46:23.261Z,101346.41
2023-08-23T00:48:51.682Z,101356.09
2023-08-23T00:51:19.619Z,101351.38
2023-08-23T00:53:47.450Z,101351.88
2023-08-23T00:56:14.093Z,101351.03
2023-08-23T00:58:40.770Z,101349.09
2023-08-23T01:01:07.951Z,101353.25
2023-08-23T01:03:34.683Z,101344.28
2023-08-23T01:06:09.224Z,101347.34
2023-08-23T01:08:39.516Z,101343.94
2023-08-23T01:11:14.469Z,101346.16
2023-08-23T01:14:04.952Z,101342.75
2023-08-23T01:16:33.897Z,101337.19
2023-08-23T01:19:04.512Z,101340.25
2023-08-23T01:21:37.257Z,101333.81
2023-08-23T01:24:09.630Z,101336.84
2023-08-23T01:26:39.654Z,101338.78
2023-08-23T01:29:06.299Z,101332.63
2023-08-23T01:31:39.244Z,101335.94
2023-08-23T01:34:16.569Z,101333.13
2023-08-23T01:36:43.825Z,101338.72
2023-08-23T01:39:12.050Z,101343.19
2023-08-23T01:41:39.566Z,101337.00
2023-08-23T01:44:06.293Z,101335.94
2023-08-23T01:46:35.203Z,101333.38
2023-08-23T01:49:02.680Z,101336.69
2023-08-23T01:51:29.244Z,101338.59
2023-08-23T01:53:55.818Z,101336.34
2023-08-23T01:56:22.363Z,101334.63
2023-08-23T01:58:48.909Z,101338.53
2023-08-23T02:01:15.477Z,101335.75
2023-08-23T02:03:42.124Z,101332.97
2023-08-23T02:06:08.674Z,101332.34
2023-08-23T02:08:36.607Z,101336.84
2023-08-23T02:11:03.221Z,101332.59
2023-08-23T02:13:29.746Z,101330.94
2023-08-23T02:15:56.520Z,101332.00
2023-08-23T02:18:23.272Z,101325.00
2023-08-23T02:20:59.637Z,101334.69
2023-08-23T02:23:26.664Z,101326.84
2023-08-23T02:25:53.552Z,101339.34
2023-08-23T02:28:20.243Z,101321.44
2023-08-23T02:30:46.966Z,101324.47
2023-08-23T02:33:13.568Z,101316.88
2023-08-23T02:35:48.164Z,101309.59
2023-08-23T02:38:15.626Z,101310.69
2023-08-23T02:40:43.714Z,101300.63
2023-08-23T02:43:10.641Z,101304.53
2023-08-23T02:45:41.417Z,101306.72
2023-08-23T02:48:11.787Z,101313.41
2023-08-23T02:50:39.151Z,101308.06
2023-08-23T02:53:05.916Z,101312.78
2023-08-23T02:55:38.886Z,101313.03
2023-08-23T02:58:06.267Z,101310.75
2023-08-23T03:00:32.813Z,101309.53
2023-08-23T03:02:59.375Z,101316.44
2023-08-23T03:05:26.018Z,101316.09
2023-08-23T03:07:52.587Z,101318.31
2023-08-23T03:10:19.118Z,101322.66
2023-08-23T03:12:45.661Z,101319.53
2023-08-23T03:15:12.267Z,101307.78
2023-08-23T03:17:38.882Z,101308.28
2023-08-23T03:20:06.151Z,101307.94
2023-08-23T03:22:32.724Z,101313.41
2023-08-23T03:24:59.266Z,101309.19
2023-08-23T03:27:26.922Z,101305.53
2023-08-23T03:29:53.454Z,101310.25
2023-08-23T03:32:22.738Z,101303.84
2023-08-23T03:34:49.452Z,101304.69
2023-08-23T03:37:16.055Z,101305.19
2023-08-23T03:39:42.608Z,101300.72
2023-08-23T03:42:09.159Z,101312.09
2023-08-23T03:44:35.695Z,101304.84
2023-08-23T03:47:02.303Z,101307.03
2023-08-23T03:49:29.706Z,101304.50
2023-08-23T03:51:56.403Z,101302.78
2023-08-23T03:54:23.127Z,101302.22
2023-08-23T03:56:49.706Z,101311.41
2023-08-23T03:59:16.212Z,101311.63
2023-08-23T04:01:44.639Z,101307.16
2023-08-23T04:04:11.641Z,101310.44
2023-08-23T04:06:38.410Z,101312.63
2023-08-23T04:09:05.021Z,101312.88
2023-08-23T04:11:31.674Z,101308.66
2023-08-23T04:13:58.199Z,101314.72
2023-08-23T04:16:24.870Z,101306.38
2023-08-23T04:18:51.492Z,101312.50
2023-08-23T04:21:18.132Z,101314.22
2023-08-23T04:23:44.668Z,101319.28
2023-08-23T04:26:11.180Z,101320.72
2023-08-23T04:28:38.434Z,101310.69
2023-08-23T04:31:05.041Z,101311.53
2023-08-23T04:33:31.878Z,101312.13
2023-08-23T04:35:58.583Z,101313.84
2023-08-23T04:38:25.162Z,101318.56
2023-08-23T04:41:01.433Z,101323.84
2023-08-23T04:43:28.024Z,101323.03
2023-08-23T04:45:59.318Z,101323.84
2023-08-23T04:48:28.100Z,101320.47
2023-08-23T04:50:56.088Z,101316.84
2023-08-23T04:53:22.731Z,101310.44
2023-08-23T04:55:49.494Z,101321.84
2023-08-23T04:58:16.986Z,101323.75
2023-08-23T05:00:47.224Z,101317.94
2023-08-23T05:03:13.955Z,101324.00
2023-08-23T05:05:42.081Z,101319.03
2023-08-23T05:08:08.677Z,101331.25
2023-08-23T05:10:36.182Z,101327.63
2023-08-23T05:13:03.048Z,101319.28
2023-08-23T05:15:29.593Z,101322.66
2023-08-23T05:17:56.352Z,101322.19
2023-08-23T05:20:22.958Z,101327.25
2023-08-23T05:22:49.499Z,101327.84
2023-08-23T05:25:16.053Z,101334.88
2023-08-23T05:27:42.593Z,101341.53
2023-08-23T05:30:09.717Z,101339.59
2023-08-23T05:32:36.353Z,101337.88
2023-08-23T05:35:04.322Z,101339.22
2023-08-23T05:37:30.853Z,101335.84
2023-08-23T05:39:57.442Z,101333.31
2023-08-23T05:42:24.023Z,101328.59
2023-08-23T05:44:50.566Z,101331.13
2023-08-23T05:47:17.068Z,101328.34
2023-08-23T05:49:43.990Z,101328.94
2023-08-23T05:52:10.634Z,101330.63
2023-08-23T05:54:37.240Z,101334.03
2023-08-23T05:57:04.813Z,101322.38
2023-08-23T05:59:31.403Z,101332.19
2023-08-23T06:01:58.055Z,101336.44
2023-08-23T06:04:24.628Z,101337.84
2023-08-23T06:06:51.170Z,101332.41
2023-08-23T06:09:20.658Z,101336.13
2023-08-23T06:11:47.220Z,101341.81
2023-08-23T06:14:21.384Z,101335.81
2023-08-23T06:16:48.116Z,101336.56
2023-08-23T06:19:14.839Z,101339.22
2023-08-23T06:21:42.847Z,101345.22
2023-08-23T06:24:10.137Z,101348.72
2023-08-23T06:26:37.053Z,101346.34
2023-08-23T06:29:04.646Z,101349.81
2023-08-23T06:31:31.620Z,101346.63
2023-08-23T06:33:58.202Z,101342.59
2023-08-23T06:36:24.767Z,101346.66
2023-08-23T06:38:51.350Z,101349.84
2023-08-23T06:41:17.988Z,101339.72
2023-08-23T06:43:48.160Z,101342.69
2023-08-23T06:46:14.783Z,101342.28
2023-08-23T06:48:42.269Z,101336.88
2023-08-23T06:51:08.785Z,101338.72
2023-08-23T06:53:36.587Z,101335.22
2023-08-23T06:56:04.681Z,101333.41
2023-08-23T06:58:31.384Z,101329.66
2023-08-23T07:00:58.184Z,101324.22
2023-08-23T07:03:24.988Z,101331.34
2023-08-23T07:05:51.634Z,101326.72
2023-08-23T07:08:18.882Z,101334.16
2023-08-23T07:10:45.831Z,101324.22
2023-08-23T07:13:12.540Z,101319.81
2023-08-23T07:15:40.100Z,101325.53
2023-08-23T07:18:06.899Z,101330.13
2023-08-23T07:20:33.428Z,101322.38
2023-08-23T07:23:00.087Z,101324.09
2023-08-23T07:25:26.675Z,101327.50
2023-08-23T07:27:53.518Z,101326.19
2023-08-23T07:30:20.088Z,101334.09
2023-08-23T07:32:46.789Z,101317.94
2023-08-23T07:35:13.385Z,101322.75
2023-08-23T07:37:39.976Z,101320.56
2023-08-23T07:40:08.008Z,101314.47
2023-08-23T07:42:34.622Z,101326.53
2023-08-23T07:45:01.175Z,101309.50
2023-08-23T07:47:27.710Z,101309.56
2023-08-23T07:49:54.295Z,101316.94
2023-08-23T07:52:20.839Z,101307.97
2023-08-23T07:54:47.333Z,101315.88
2023-08-23T07:57:13.834Z,101312.81
2023-08-23T07:59:40.461Z,101321.59
2023-08-23T08:02:07.390Z,101319.09
2023-08-23T08:04:34.862Z,101321.66
2023-08-23T08:07:01.513Z,101319.16
2023-08-23T08:09:28.088Z,101319.75
2023-08-23T08:11:54.660Z,101323.69
2023-08-23T08:14:21.194Z,101336.06
2023-08-23T08:16:47.830Z,101331.28
2023-08-23T08:19:14.503Z,101330.75
2023-08-23T08:21:41.630Z,101332.16
2023-08-23T08:24:08.257Z,101335.03
2023-08-23T08:26:34.845Z,101331.38
2023-08-23T08:29:01.342Z,101341.22
2023-08-23T08:31:27.916Z,101336.44
2023-08-23T08:33:54.553Z,101340.38
2023-08-23T08:36:21.113Z,101332.50
2023-08-23T08:38:47.621Z,101329.16
2023-08-23T08:41:14.373Z,101325.78
2023-08-23T08:43:41.408Z,101326.31
2023-08-23T08:46:08.232Z,101325.16
2023-08-23T08:48:34.832Z,101316.44
2023-08-23T08:51:04.134Z,101329.31
2023-08-23T08:53:33.403Z,101320.00
2023-08-23T08:56:01.389Z,101318.81
2023-08-23T08:58:29.626Z,101322.72
2023-08-23T09:00:59.821Z,101322.09
2023-08-23T09:03:27.581Z,101318.09
2023-08-23T09:05:54.876Z,101321.94
2023-08-23T09:08:22.010Z,101315.13
2023-08-23T09:10:48.525Z,101315.88
2023-08-23T09:13:15.075Z,101304.84
2023-08-23T09:15:41.799Z,101312.59
2023-08-23T09:18:08.487Z,101303.44
2023-08-23T09:20:36.754Z,101299.34
2023-08-23T09:23:03.413Z,101300.34
2023-08-23T09:25:30.012Z,101290.66
2023-08-23T09:27:57.329Z,101289.41
2023-08-23T09:30:24.268Z,101276.56
2023-08-23T09:32:50.933Z,101275.81
2023-08-23T09:35:18.676Z,101270.88
2023-08-23T09:37:49.838Z,101272.16
2023-08-23T09:40:16.635Z,101276.22
2023-08-23T09:42:44.689Z,101268.44
2023-08-23T09:45:16.177Z,101274.13
2023-08-23T09:47:55.739Z,101273.06
2023-08-23T09:50:24.674Z,101280.50
2023-08-23T09:53:20.985Z,101278.06
2023-08-23T09:55:48.163Z,101270.59
2023-08-23T09:58:14.797Z,101268.09
2023-08-23T10:00:42.166Z,101269.56
2023-08-23T10:03:10.214Z,101268.16
2023-08-23T10:05:37.259Z,101262.75
2023-08-23T10:08:03.893Z,101268.50
2023-08-23T10:10:31.614Z,101267.44
2023-08-23T10:13:05.460Z,101256.00
2023-08-23T10:15:38.903Z,101257.38
2023-08-23T10:18:10.241Z,101241.56
2023-08-23T10:20:38.351Z,101242.00
2023-08-23T10:23:19.689Z,101236.22
2023-08-23T10:25:48.248Z,101249.81
2023-08-23T10:28:17.352Z,101249.56
2023-08-23T10:30:46.117Z,101249.44
2023-08-23T10:33:17.588Z,101253.13
2023-08-23T10:35:45.989Z,101259.59
2023-08-23T10:38:13.348Z,101251.84
2023-08-23T10:40:41.344Z,101244.28
2023-08-23T10:43:13.112Z,101242.06
2023-08-23T10:46:09.581Z,101238.97
2023-08-23T10:48:36.808Z,101227.16
2023-08-23T10:51:03.796Z,101222.53
2023-08-23T10:53:31.330Z,101228.31
2023-08-23T10:56:01.688Z,101224.66
2023-08-23T10:58:28.200Z,101219.47
2023-08-23T11:00:55.651Z,101219.66
2023-08-23T11:03:23.029Z,101218.47
2023-08-23T11:05:50.057Z,101211.97
2023-08-23T11:08:17.314Z,101217.97
2023-08-23T11:10:44.108Z,101222.97
2023-08-23T11:13:10.814Z,101218.31
2023-08-23T11:15:37.840Z,101213.47
2023-08-23T11:18:04.896Z,101218.25
2023-08-23T11:20:31.633Z,101213.75
2023-08-23T11:22:58.273Z,101212.19
2023-08-23T11:25:24.797Z,101219.88
2023-08-23T11:27:52.099Z,101213.41
2023-08-23T11:30:23.544Z,101220.56
2023-08-23T11:32:50.259Z,101213.16
2023-08-23T11:35:23.155Z,101221.31
2023-08-23T11:37:50.819Z,101218.69
2023-08-23T11:40:18.083Z,101212.97
2023-08-23T11:42:46.527Z,101205.78
2023-08-23T11:45:13.193Z,101212.75
2023-08-23T11:47:40.327Z,101206.53
2023-08-23T11:50:08.637Z,101206.94
2023-08-23T11:52:35.305Z,101208.31
2023-08-23T11:55:05.772Z,101203.06
2023-08-23T11:57:35.420Z,101207.78
2023-08-23T12:00:02.469Z,101209.25
2023-08-23T12:02:29.090Z,101213.56
2023-08-23T12:04:56.021Z,101202.25
2023-08-23T12:07:22.575Z,101208.09
2023-08-23T12:09:49.066Z,101212.53
2023-08-23T12:12:15.714Z,101202.44
2023-08-23T12:14:42.539Z,101197.00
2023-08-23T12:17:09.219Z,101190.22
2023-08-23T12:19:37.863Z,101196.34
2023-08-23T12:22:06.632Z,101193.97
2023-08-23T12:24:33.253Z,101177.13
2023-08-23T12:27:00.988Z,101174.53
2023-08-23T12:29:27.853Z,101175.84
2023-08-23T12:31:57.197Z,101167.16
2023-08-23T12:34:25.382Z,101165.63
2023-08-23T12:36:51.960Z,101160.97
2023-08-23T12:39:18.487Z,101159.66
2023-08-23T12:41:45.124Z,101158.94
2023-08-23T12:44:11.672Z,101158.78
2023-08-23T12:46:38.188Z,101162.69
2023-08-23T12:49:08.439Z,101160.91
2023-08-23T12:51:35.691Z,101152.66
2023-08-23T12:54:02.322Z,101155.59
2023-08-23T12:56:28.865Z,101159.34
2023-08-23T12:58:55.525Z,101147.38
2023-08-23T13:01:22.262Z,101152.94
2023-08-23T13:03:48.805Z,101151.00
2023-08-23T13:06:15.341Z,101149.81
2023-08-23T13:08:41.884Z,101144.56
2023-08-23T13:11:08.784Z,101144.22
2023-08-23T13:13:36.866Z,101145.50
2023-08-23T13:16:03.463Z,101139.16
2023-08-23T13:18:30.047Z,101138.31
2023-08-23T13:20:56.568Z,101132.97
2023-08-23T13:23:23.937Z,101134.72
2023-08-23T13:25:50.919Z,101132.41
2023-08-23T13:28:18.088Z,101133.09
2023-08-23T13:30:44.873Z,101129.22
2023-08-23T13:33:11.459Z,101112.88
2023-08-23T13:35:38.035Z,101109.13
2023-08-23T13:38:04.746Z,101110.75
2023-08-23T13:40:31.220Z,101105.03
2023-08-23T13:43:13.862Z,101104.88
2023-08-23T13:45:46.125Z,101113.03
2023-08-23T13:48:13.286Z,101108.31
2023-08-23T13:50:39.915Z,101105.75
2023-08-23T13:53:06.480Z,101105.72
2023-08-23T13:55:33.073Z,101097.16
2023-08-23T13:57:59.691Z,101092.69
2023-08-23T14:00:26.356Z,101096.00
2023-08-23T14:02:52.905Z,101092.38
2023-08-23T14:05:19.821Z,101086.88
2023-08-23T14:07:46.655Z,101087.72
2023-08-23T14:10:13.662Z,101083.19
2023-08-23T14:12:40.177Z,101086.50
2023-08-23T14:15:07.210Z,101081.06
2023-08-23T14:17:33.776Z,101075.03
2023-08-23T14:20:01.327Z,101067.19
2023-08-23T14:22:27.917Z,101080.75
2023-08-23T14:24:54.491Z,101079.41
2023-08-23T14:27:21.028Z,101072.69
2023-08-23T14:29:47.560Z,101075.81
2023-08-23T14:32:14.106Z,101067.88
2023-08-23T14:34:40.718Z,101082.06
2023-08-23T14:37:07.276Z,101077.38
2023-08-23T14:39:33.820Z,101077.72
2023-08-23T14:42:00.381Z,101073.91
2023-08-23T14:44:30.179Z,101071.25
2023-08-23T14:46:58.286Z,101075.69
2023-08-23T14:49:24.756Z,101067.59
2023-08-23T14:51:51.260Z,101073.28
2023-08-23T14:54:17.840Z,101055.88
2023-08-23T14:56:44.355Z,101053.28
2023-08-23T14:59:10.863Z,101054.84
2023-08-23T15:01:37.551Z,101055.44
2023-08-23T15:04:04.281Z,101055.88
2023-08-23T15:06:30.819Z,101052.16
2023-08-23T15:08:57.287Z,101049.94
2023-08-23T15:11:23.812Z,101052.13
2023-08-23T15:13:51.524Z,101049.72
2023-08-23T15:16:18.178Z,101047.28
2023-08-23T15:18:44.757Z,101048.81
2023-08-23T15:21:11.367Z,101041.19
2023-08-23T15:23:37.961Z,101047.28
2023-08-23T15:26:04.505Z,101042.47
2023-08-23T15:28:34.002Z,101033.16
2023-08-23T15:31:08.288Z,101037.78
2023-08-23T15:33:34.779Z,101043.13
2023-08-23T15:36:04.133Z,101038.63
2023-08-23T15:38:31.075Z,101044.00
2023-08-23T15:40:57.571Z,101044.47
2023-08-23T15:43:24.145Z,101043.25
2023-08-23T15:45:53.675Z,101049.78
2023-08-23T15:48:21.305Z,101038.19
2023-08-23T15:50:48.945Z,101042.56
2023-08-23T15:53:17.194Z,101043.84
2023-08-23T15:55:44.946Z,101036.50
2023-08-23T15:58:11.456Z,101037.84
2023-08-23T16:00:38.135Z,101034.63
2023-08-23T16:03:04.881Z,101028.53
2023-08-23T16:05:31.441Z,101030.47
2023-08-23T16:07:57.954Z,101033.38
2023-08-23T16:10:24.501Z,101024.28
2023-08-23T16:12:51.012Z,101026.78
2023-08-23T16:15:17.694Z,101026.38
2023-08-23T16:17:44.223Z,101022.38
2023-08-23T16:20:11.206Z,101016.25
2023-08-23T16:22:37.830Z,101017.97
2023-08-23T16:25:05.287Z,101020.94
2023-08-23T16:27:31.788Z,101022.53
2023-08-23T16:30:00.017Z,101019.28
2023-08-23T16:32:26.531Z,101020.47
2023-08-23T16:34:53.090Z,101019.22
2023-08-23T16:37:19.577Z,101026.56
2023-08-23T16:39:46.151Z,101025.13
2023-08-23T16:42:12.702Z,101028.16
2023-08-23T16:44:39.214Z,101027.66
2023-08-23T16:47:05.886Z,101023.41
2023-08-23T16:49:32.414Z,101032.16
2023-08-23T16:51:58.868Z,101032.13
2023-08-23T16:54:25.428Z,101042.44
2023-08-23T16:56:51.913Z,101033.66
2023-08-23T16:59:18.460Z,101031.09
2023-08-23T17:01:45.045Z,101030.03
2023-08-23T17:04:11.586Z,101034.13
2023-08-23T17:06:38.246Z,101028.88
2023-08-23T17:09:04.997Z,101037.44
2023-08-23T17:11:31.703Z,101025.66
2023-08-23T17:13:58.233Z,101040.78
2023-08-23T17:16:24.848Z,101023.72
2023-08-23T17:18:51.303Z,101028.66
2023-08-23T17:21:18.216Z,101023.78
2023-08-23T17:23:44.718Z,101024.53
2023-08-23T17:26:11.354Z,101024.97
2023-08-23T17:28:39.449Z,101034.44
2023-08-23T17:31:09.941Z,101034.50
2023-08-23T17:33:36.874Z,101037.38
2023-08-23T17:36:04.177Z,101042.75
2023-08-23T17:38:30.672Z,101030.69
2023-08-23T17:40:57.192Z,101035.69
2023-08-23T17:43:23.985Z,101031.63
2023-08-23T17:45:50.472Z,101038.81
2023-08-23T17:48:16.973Z,101038.19
2023-08-23T17:50:43.694Z,101035.09
2023-08-23T17:53:10.152Z,101045.16
2023-08-23T17:55:36.666Z,101039.56
2023-08-23T17:58:03.359Z,101044.59
2023-08-23T18:00:29.875Z,101050.97
2023-08-23T18:02:56.421Z,101047.19
2023-08-23T18:05:23.120Z,101063.69
2023-08-23T18:07:49.667Z,101062.50
2023-08-23T18:10:16.243Z,101066.81
2023-08-23T18:12:42.782Z,101060.59
2023-08-23T18:15:09.736Z,101057.19
2023-08-23T18:17:36.289Z,101058.78
2023-08-23T18:20:02.904Z,101070.88
2023-08-23T18:22:29.382Z,101086.91
2023-08-23T18:24:55.852Z,101081.66
2023-08-23T18:27:23.529Z,101086.28
2023-08-23T18:29:50.377Z,101084.97
2023-08-23T18:32:16.868Z,101087.03
2023-08-23T18:34:43.360Z,101087.06
2023-08-23T18:37:09.908Z,101088.75
2023-08-23T18:39:36.810Z,101085.41
2023-08-23T18:42:03.544Z,101088.75
2023-08-23T18:44:32.069Z,101096.13
2023-08-23T18:46:58.760Z,101096.63
2023-08-23T18:49:25.262Z,101100.28
2023-08-23T18:51:51.761Z,101108.09
2023-08-23T18:54:18.356Z,101114.22
2023-08-23T18:56:44.881Z,101115.88
2023-08-23T18:59:12.174Z,101117.50
2023-08-23T19:01:38.807Z,101113.53
2023-08-23T19:04:05.459Z,101122.94
2023-08-23T19:06:32.133Z,101131.56
2023-08-23T19:08:58.635Z,101135.09
2023-08-23T19:11:25.186Z,101134.41
2023-08-23T19:13:51.707Z,101139.88
2023-08-23T19:16:18.735Z,101142.25
2023-08-23T19:18:45.947Z,101144.09
2023-08-23T19:21:12.668Z,101139.63
2023-08-23T19:23:39.433Z,101144.81
2023-08-23T19:26:05.952Z,101141.19
2023-08-23T19:28:32.506Z,101148.88
2023-08-23T19:30:58.996Z,101147.56
2023-08-23T19:33:25.509Z,101138.94
2023-08-23T19:35:52.266Z,101139.56
2023-08-23T19:38:20.615Z,101140.75
2023-08-23T19:40:47.690Z,101139.97
2023-08-23T19:43:14.855Z,101144.81
2023-08-23T19:45:41.771Z,101155.00
2023-08-23T19:48:25.317Z,101142.13
2023-08-23T19:50:54.873Z,101144.44
2023-08-23T19:53:21.387Z,101145.63
2023-08-23T19:55:47.989Z,101149.59
2023-08-23T19:58:20.031Z,101146.31
2023-08-23T20:00:46.676Z,101154.53
2023-08-23T20:03:13.524Z,101157.09
2023-08-23T20:05:46.733Z,101154.34
2023-08-23T20:08:13.396Z,101168.75
2023-08-23T20:10:39.926Z,101157.22
2023-08-23T20:13:06.454Z,101156.19
2023-08-23T20:15:33.835Z,101154.00
2023-08-23T20:18:00.443Z,101152.91
2023-08-23T20:20:27.117Z,101152.72
2023-08-23T20:22:53.723Z,101164.81
2023-08-23T20:25:20.441Z,101151.91
2023-08-23T20:27:47.060Z,101154.50
2023-08-23T20:30:13.756Z,101151.44
2023-08-23T20:32:40.307Z,101142.50
2023-08-23T20:35:07.837Z,101150.66
2023-08-23T20:37:34.364Z,101146.44
2023-08-23T20:40:00.913Z,101147.31
2023-08-23T20:42:27.435Z,101144.25
2023-08-23T20:44:53.993Z,101144.31
2023-08-23T20:47:20.526Z,101141.50
2023-08-23T20:49:46.998Z,101144.91
2023-08-23T20:52:13.581Z,101145.50
2023-08-23T20:54:40.093Z,101141.03
2023-08-23T20:57:06.615Z,101148.34
2023-08-23T20:59:33.233Z,101144.41
2023-08-23T21:01:59.730Z,101151.72
2023-08-23T21:04:26.838Z,101146.13
2023-08-23T21:06:53.488Z,101144.47
2023-08-23T21:09:19.981Z,101146.16
2023-08-23T21:11:46.526Z,101138.06
2023-08-23T21:14:13.047Z,101152.66
2023-08-23T21:16:39.609Z,101141.75
2023-08-23T21:19:07.232Z,101144.56
2023-08-23T21:21:33.969Z,101138.41
2023-08-23T21:24:00.466Z,101138.97
2023-08-23T21:26:27.100Z,101148.22
2023-08-23T21:28:53.882Z,101132.81
2023-08-23T21:31:20.450Z,101137.31
2023-08-23T21:33:47.066Z,101128.31
2023-08-23T21:36:13.706Z,101136.44
2023-08-23T21:38:40.380Z,101135.63
2023-08-23T21:41:07.005Z,101138.16
2023-08-23T21:43:33.779Z,101135.06
2023-08-23T21:46:01.682Z,101125.81
2023-08-23T21:48:28.293Z,101125.56
2023-08-23T21:50:54.936Z,101122.72
2023-08-23T21:53:21.638Z,101119.97
2023-08-23T21:55:56.634Z,101124.44
2023-08-23T21:58:30.125Z,101125.28
2023-08-23T22:00:59.779Z,101124.41
2023-08-23T22:03:40.547Z,101103.97
2023-08-23T22:06:09.681Z,101107.88
2023-08-23T22:08:42.528Z,101107.03
2023-08-23T22:11:12.095Z,101112.09
2023-08-23T22:13:40.368Z,101128.31
2023-08-23T22:16:07.449Z,101117.69
2023-08-23T22:18:35.098Z,101117.69
2023-08-23T22:21:03.447Z,101112.94
2023-08-23T22:23:29.925Z,101126.38
2023-08-23T22:25:58.508Z,101114.34
2023-08-23T22:28:25.380Z,101122.16
2023-08-23T22:30:52.241Z,101114.59
2023-08-23T22:33:18.850Z,101117.34
2023-08-23T22:35:46.674Z,101116.78
2023-08-23T22:38:13.784Z,101117.34
2023-08-23T22:40:46.425Z,101122.66
2023-08-23T22:43:13.339Z,101122.09
2023-08-23T22:45:40.009Z,101112.56
2023-08-23T22:48:06.897Z,101124.06
2023-08-23T22:50:33.492Z,101124.31
2023-08-23T22:53:00.124Z,101120.13
2023-08-23T22:55:26.718Z,101121.47
2023-08-23T22:57:53.941Z,101118.13
2023-08-23T23:00:20.582Z,101106.66
2023-08-23T23:02:47.185Z,101104.41
2023-08-23T23:05:13.762Z,101111.38
2023-08-23T23:07:40.728Z,101113.59
2023-08-23T23:10:08.142Z,101110.81
2023-08-23T23:12:35.262Z,101104.06
2023-08-23T23:15:04.311Z,101109.94
2023-08-23T23:17:31.942Z,101110.75
2023-08-23T23:19:58.603Z,101111.84
2023-08-23T23:22:25.131Z,101113.50
2023-08-23T23:24:51.680Z,101111.25
2023-08-23T23:27:18.212Z,101107.06
2023-08-23T23:29:44.694Z,101110.66
2023-08-23T23:32:12.218Z,101120.47
2023-08-23T23:34:38.860Z,101118.16
2023-08-23T23:37:05.699Z,101120.09
2023-08-23T23:39:32.329Z,101117.84
2023-08-23T23:41:58.900Z,101120.34
2023-08-23T23:44:25.443Z,101125.09
2023-08-23T23:46:52.031Z,101121.69
2023-08-23T23:49:18.797Z,101128.69
2023-08-23T23:51:45.347Z,101126.16
2023-08-23T23:54:11.897Z,101123.63
2023-08-23T23:56:38.429Z,101115.50
2023-08-23T23:59:04.984Z,101125.03
